SAS81 ESSA-ESSV
Flight info
| Callsign | SAS81 |
|---|---|
| Flight time | 0h 27m |
| Altitude | 15000 |
| Route | BABAP T316 GOTAL |
| Aircraft | B736/M-SDE2E3FGHIRWXY/LB1 |
Departure
| Time | 2026-04-23 16:07 |
|---|---|
| Airport | Stockholm-Arlanda Airport (ESSA) |
Arrival
| Time | 2026-04-23 16:34 |
|---|---|
| Airport | Visby Airport (ESSV) |
| Time | Latitude | Longitude | Altitude | Speed | Heading |
|---|---|---|---|---|---|
| 2026-04-23 15:43 | 59.65142 | 17.92697 | 111 ft | 0 kts | 191° |
| 2026-04-23 15:55 | 59.65153 | 17.92701 | 109 ft | 3 kts | 191° |
| 2026-04-23 15:56 | 59.65174 | 17.92709 | 109 ft | 3 kts | 191° |
| 2026-04-23 15:56 | 59.65194 | 17.92718 | 111 ft | 3 kts | 192° |
| 2026-04-23 15:56 | 59.65215 | 17.92726 | 111 ft | 3 kts | 204° |
| 2026-04-23 15:56 | 59.65229 | 17.92755 | 107 ft | 3 kts | 262° |
| 2026-04-23 15:57 | 59.65223 | 17.92794 | 111 ft | 3 kts | 291° |
| 2026-04-23 15:57 | 59.65220 | 17.92811 | 109 ft | 0 kts | 290° |
| 2026-04-23 16:01 | 59.65223 | 17.92795 | 110 ft | 3 kts | 289° |
| 2026-04-23 16:02 | 59.65237 | 17.92720 | 111 ft | 9 kts | 290° |
| 2026-04-23 16:02 | 59.65260 | 17.92573 | 110 ft | 13 kts | 288° |
| 2026-04-23 16:02 | 59.65298 | 17.92370 | 108 ft | 19 kts | 289° |
| 2026-04-23 16:02 | 59.65379 | 17.92282 | 103 ft | 14 kts | 17° |
| 2026-04-23 16:03 | 59.65452 | 17.92390 | 104 ft | 13 kts | 42° |
| 2026-04-23 16:03 | 59.65512 | 17.92522 | 104 ft | 13 kts | 57° |
| 2026-04-23 16:03 | 59.65539 | 17.92683 | 106 ft | 12 kts | 78° |
| 2026-04-23 16:03 | 59.65560 | 17.92847 | 107 ft | 12 kts | 76° |
| 2026-04-23 16:04 | 59.65580 | 17.93005 | 108 ft | 12 kts | 75° |
| 2026-04-23 16:04 | 59.65600 | 17.93160 | 108 ft | 11 kts | 77° |
| 2026-04-23 16:04 | 59.65630 | 17.93301 | 107 ft | 11 kts | 47° |
| 2026-04-23 16:04 | 59.65683 | 17.93410 | 108 ft | 11 kts | 45° |
| 2026-04-23 16:05 | 59.65718 | 17.93481 | 110 ft | 11 kts | 46° |
| 2026-04-23 16:05 | 59.65786 | 17.93622 | 112 ft | 10 kts | 46° |
| 2026-04-23 16:05 | 59.65837 | 17.93725 | 113 ft | 11 kts | 43° |
| 2026-04-23 16:05 | 59.65874 | 17.93867 | 117 ft | 7 kts | 77° |
| 2026-04-23 16:06 | 59.65874 | 17.93868 | 117 ft | 0 kts | 77° |
| 2026-04-23 16:06 | 59.65875 | 17.93875 | 117 ft | 6 kts | 77° |
| 2026-04-23 16:06 | 59.65961 | 17.94546 | 121 ft | 102 kts | 75° |
| 2026-04-23 16:06 | 59.66197 | 17.96480 | 260 ft | 174 kts | 73° |
| 2026-04-23 16:07 | 59.66482 | 17.98844 | 1390 ft | 184 kts | 69° |
| 2026-04-23 16:07 | 59.66851 | 18.01231 | 2795 ft | 169 kts | 66° |
| 2026-04-23 16:07 | 59.67143 | 18.03380 | 3892 ft | 162 kts | 69° |
| 2026-04-23 16:07 | 59.67402 | 18.05707 | 4217 ft | 190 kts | 70° |
| 2026-04-23 16:08 | 59.67697 | 18.08454 | 4500 ft | 217 kts | 71° |
| 2026-04-23 16:08 | 59.68024 | 18.11524 | 4754 ft | 240 kts | 72° |
| 2026-04-23 16:08 | 59.68379 | 18.14862 | 5174 ft | 257 kts | 72° |
| 2026-04-23 16:08 | 59.68761 | 18.18445 | 5728 ft | 271 kts | 72° |
| 2026-04-23 16:09 | 59.69153 | 18.22118 | 6607 ft | 273 kts | 72° |
| 2026-04-23 16:09 | 59.69552 | 18.25810 | 7463 ft | 276 kts | 71° |
| 2026-04-23 16:09 | 59.69957 | 18.29553 | 8375 ft | 280 kts | 71° |
| 2026-04-23 16:09 | 59.70368 | 18.33344 | 9356 ft | 282 kts | 71° |
| 2026-04-23 16:10 | 59.70633 | 18.37249 | 10264 ft | 297 kts | 86° |
| 2026-04-23 16:10 | 59.70041 | 18.41378 | 10641 ft | 337 kts | 115° |
| 2026-04-23 16:10 | 59.68348 | 18.44830 | 11164 ft | 362 kts | 145° |
| 2026-04-23 16:10 | 59.66102 | 18.47187 | 11984 ft | 370 kts | 153° |
| 2026-04-23 16:11 | 59.63760 | 18.49325 | 12844 ft | 376 kts | 154° |
| 2026-04-23 16:11 | 59.61371 | 18.51516 | 13727 ft | 381 kts | 153° |
| 2026-04-23 16:11 | 59.60818 | 18.52036 | 13920 ft | 383 kts | 153° |
| 2026-04-23 16:11 | 59.58400 | 18.54366 | 14604 ft | 389 kts | 151° |
| 2026-04-23 16:12 | 59.55972 | 18.56781 | 14943 ft | 392 kts | 150° |
| 2026-04-23 16:12 | 59.54365 | 18.58406 | 14988 ft | 392 kts | 150° |
| 2026-04-23 16:12 | 59.51912 | 18.60759 | 14987 ft | 393 kts | 158° |
| 2026-04-23 16:12 | 59.49265 | 18.62104 | 15002 ft | 393 kts | 171° |
| 2026-04-23 16:13 | 59.46541 | 18.62473 | 14997 ft | 393 kts | 183° |
| 2026-04-23 16:13 | 59.41082 | 18.61903 | 14989 ft | 392 kts | 185° |
| 2026-04-23 16:13 | 59.38357 | 18.61582 | 14993 ft | 392 kts | 185° |
| 2026-04-23 16:14 | 59.35632 | 18.61269 | 14995 ft | 392 kts | 185° |
| 2026-04-23 16:14 | 59.32916 | 18.60969 | 14995 ft | 391 kts | 184° |
| 2026-04-23 16:14 | 59.30196 | 18.60678 | 14996 ft | 391 kts | 184° |
| 2026-04-23 16:14 | 59.27479 | 18.60395 | 14999 ft | 391 kts | 184° |
| 2026-04-23 16:15 | 59.24765 | 18.60118 | 15000 ft | 391 kts | 184° |
| 2026-04-23 16:15 | 59.22052 | 18.59844 | 14998 ft | 391 kts | 184° |
| 2026-04-23 16:15 | 59.19335 | 18.59570 | 15000 ft | 390 kts | 184° |
| 2026-04-23 16:15 | 59.16598 | 18.59296 | 15004 ft | 390 kts | 184° |
| 2026-04-23 16:16 | 59.13912 | 18.59028 | 15003 ft | 390 kts | 184° |
| 2026-04-23 16:16 | 59.11197 | 18.58757 | 14987 ft | 390 kts | 184° |
| 2026-04-23 16:16 | 59.08492 | 18.58487 | 14994 ft | 389 kts | 184° |
| 2026-04-23 16:16 | 59.05789 | 18.58218 | 15000 ft | 389 kts | 184° |
| 2026-04-23 16:17 | 59.03084 | 18.57950 | 15003 ft | 388 kts | 184° |
| 2026-04-23 16:17 | 59.00385 | 18.57682 | 15003 ft | 388 kts | 184° |
| 2026-04-23 16:17 | 58.97686 | 18.57414 | 15000 ft | 386 kts | 184° |
| 2026-04-23 16:17 | 58.95035 | 18.57153 | 14992 ft | 377 kts | 184° |
| 2026-04-23 16:18 | 58.92435 | 18.56897 | 14996 ft | 373 kts | 184° |
| 2026-04-23 16:18 | 58.89844 | 18.56641 | 15016 ft | 374 kts | 184° |
| 2026-04-23 16:18 | 58.87237 | 18.56384 | 15020 ft | 375 kts | 184° |
| 2026-04-23 16:18 | 58.84624 | 18.56126 | 15018 ft | 376 kts | 184° |
| 2026-04-23 16:19 | 58.82044 | 18.55873 | 15008 ft | 376 kts | 184° |
| 2026-04-23 16:19 | 58.79394 | 18.55613 | 15013 ft | 376 kts | 184° |
| 2026-04-23 16:19 | 58.76819 | 18.55361 | 15011 ft | 375 kts | 184° |
| 2026-04-23 16:19 | 58.74216 | 18.55106 | 15009 ft | 375 kts | 184° |
| 2026-04-23 16:20 | 58.71611 | 18.54852 | 15016 ft | 374 kts | 184° |
| 2026-04-23 16:20 | 58.68986 | 18.54596 | 15020 ft | 373 kts | 184° |
| 2026-04-23 16:20 | 58.66424 | 18.54347 | 15018 ft | 373 kts | 184° |
| 2026-04-23 16:20 | 58.63834 | 18.54095 | 15020 ft | 373 kts | 184° |
| 2026-04-23 16:21 | 58.61240 | 18.53844 | 15019 ft | 373 kts | 184° |
| 2026-04-23 16:21 | 58.58674 | 18.53596 | 15010 ft | 365 kts | 184° |
| 2026-04-23 16:21 | 58.56193 | 18.53358 | 14999 ft | 349 kts | 184° |
| 2026-04-23 16:21 | 58.53820 | 18.53132 | 14988 ft | 333 kts | 185° |
| 2026-04-23 16:22 | 58.51555 | 18.52916 | 14938 ft | 321 kts | 185° |
| 2026-04-23 16:22 | 58.49292 | 18.52696 | 14231 ft | 333 kts | 185° |
| 2026-04-23 16:22 | 58.46907 | 18.52459 | 13282 ft | 352 kts | 185° |
| 2026-04-23 16:22 | 58.44434 | 18.52218 | 12638 ft | 357 kts | 184° |
| 2026-04-23 16:23 | 58.41957 | 18.51980 | 12204 ft | 354 kts | 184° |
| 2026-04-23 16:23 | 58.39510 | 18.51747 | 11809 ft | 350 kts | 184° |
| 2026-04-23 16:23 | 58.37085 | 18.51517 | 11394 ft | 347 kts | 184° |
| 2026-04-23 16:23 | 58.34687 | 18.51289 | 11078 ft | 342 kts | 184° |
| 2026-04-23 16:24 | 58.32360 | 18.51069 | 10980 ft | 329 kts | 184° |
| 2026-04-23 16:24 | 58.30118 | 18.50858 | 10890 ft | 316 kts | 185° |
| 2026-04-23 16:24 | 58.27945 | 18.50652 | 10682 ft | 310 kts | 185° |
| 2026-04-23 16:24 | 58.25800 | 18.50447 | 10375 ft | 308 kts | 184° |
| 2026-04-23 16:25 | 58.23667 | 18.50244 | 10105 ft | 304 kts | 185° |
| 2026-04-23 16:25 | 58.21592 | 18.50048 | 10035 ft | 292 kts | 185° |
| 2026-04-23 16:25 | 58.19608 | 18.49862 | 10016 ft | 279 kts | 185° |
| 2026-04-23 16:25 | 58.17711 | 18.49683 | 10011 ft | 266 kts | 185° |
| 2026-04-23 16:26 | 58.15909 | 18.49514 | 10011 ft | 253 kts | 185° |
| 2026-04-23 16:26 | 58.14209 | 18.49354 | 10023 ft | 245 kts | 185° |
| 2026-04-23 16:26 | 58.12504 | 18.49191 | 10036 ft | 247 kts | 185° |
| 2026-04-23 16:26 | 58.10765 | 18.49023 | 10051 ft | 253 kts | 185° |
| 2026-04-23 16:27 | 58.08997 | 18.48854 | 10050 ft | 256 kts | 185° |
| 2026-04-23 16:27 | 58.07222 | 18.48687 | 10042 ft | 255 kts | 185° |
| 2026-04-23 16:27 | 58.05457 | 18.48520 | 10008 ft | 255 kts | 185° |
| 2026-04-23 16:27 | 58.03643 | 18.48348 | 9498 ft | 267 kts | 185° |
| 2026-04-23 16:28 | 58.01727 | 18.48164 | 8607 ft | 286 kts | 185° |
| 2026-04-23 16:28 | 57.99701 | 18.47973 | 7955 ft | 293 kts | 184° |
| 2026-04-23 16:28 | 57.97667 | 18.47785 | 7433 ft | 292 kts | 184° |
| 2026-04-23 16:28 | 57.95648 | 18.47598 | 6937 ft | 289 kts | 184° |
| 2026-04-23 16:29 | 57.93644 | 18.47413 | 6471 ft | 287 kts | 184° |
| 2026-04-23 16:29 | 57.91665 | 18.47230 | 5992 ft | 284 kts | 185° |
| 2026-04-23 16:29 | 57.89707 | 18.47049 | 5634 ft | 276 kts | 185° |
| 2026-04-23 16:29 | 57.87844 | 18.46878 | 5488 ft | 260 kts | 185° |
| 2026-04-23 16:30 | 57.86105 | 18.46720 | 5316 ft | 243 kts | 186° |
| 2026-04-23 16:30 | 57.84396 | 18.46559 | 4617 ft | 247 kts | 186° |
| 2026-04-23 16:30 | 57.82672 | 18.46373 | 3893 ft | 249 kts | 190° |
| 2026-04-23 16:30 | 57.81037 | 18.45440 | 3186 ft | 245 kts | 208° |
| 2026-04-23 16:31 | 57.79456 | 18.44186 | 2467 ft | 247 kts | 206° |
| 2026-04-23 16:31 | 57.77898 | 18.43018 | 2108 ft | 233 kts | 204° |
| 2026-04-23 16:31 | 57.76455 | 18.41966 | 1951 ft | 211 kts | 204° |
| 2026-04-23 16:31 | 57.75171 | 18.41029 | 1805 ft | 184 kts | 205° |
| 2026-04-23 16:32 | 57.74036 | 18.40181 | 1617 ft | 169 kts | 205° |
| 2026-04-23 16:32 | 57.72988 | 18.39428 | 1403 ft | 154 kts | 205° |
| 2026-04-23 16:32 | 57.72043 | 18.38752 | 1260 ft | 137 kts | 205° |
| 2026-04-23 16:32 | 57.71170 | 18.38125 | 1041 ft | 131 kts | 204° |
| 2026-04-23 16:33 | 57.70344 | 18.37532 | 872 ft | 125 kts | 204° |
| 2026-04-23 16:33 | 57.69530 | 18.36948 | 723 ft | 125 kts | 203° |
| 2026-04-23 16:33 | 57.68726 | 18.36389 | 554 ft | 121 kts | 202° |
| 2026-04-23 16:33 | 57.67903 | 18.35805 | 360 ft | 131 kts | 202° |
| 2026-04-23 16:34 | 57.67042 | 18.35165 | 183 ft | 136 kts | 203° |
| 2026-04-23 16:34 | 57.66253 | 18.34599 | 156 ft | 99 kts | 201° |
| 2026-04-23 16:34 | 57.65762 | 18.34249 | 158 ft | 32 kts | 201° |
| 2026-04-23 16:34 | 57.65647 | 18.34166 | 158 ft | 6 kts | 201° |
| 2026-04-23 16:35 | 57.65606 | 18.34139 | 158 ft | 6 kts | 203° |
| 2026-04-23 16:35 | 57.65573 | 18.34091 | 158 ft | 6 kts | 224° |
| 2026-04-23 16:35 | 57.65548 | 18.34104 | 158 ft | 6 kts | 60° |
| 2026-04-23 16:35 | 57.65589 | 18.34123 | 158 ft | 6 kts | 18° |
| 2026-04-23 16:36 | 57.65630 | 18.34154 | 158 ft | 7 kts | 22° |
| 2026-04-23 16:36 | 57.65686 | 18.34197 | 158 ft | 10 kts | 21° |
| 2026-04-23 16:36 | 57.65768 | 18.34257 | 157 ft | 15 kts | 21° |
| 2026-04-23 16:36 | 57.65886 | 18.34340 | 155 ft | 20 kts | 20° |
| 2026-04-23 16:37 | 57.65983 | 18.34231 | 157 ft | 19 kts | 290° |
| 2026-04-23 16:37 | 57.66007 | 18.34105 | 158 ft | 10 kts | 283° |
| 2026-04-23 16:37 | 57.65975 | 18.34008 | 158 ft | 9 kts | 225° |
| 2026-04-23 16:37 | 57.66005 | 18.33934 | 158 ft | 7 kts | 336° |
| 2026-04-23 16:38 | 57.66014 | 18.33927 | 158 ft | 1 kts | 337° |
| 2026-04-23 16:38 | 57.66018 | 18.33924 | 158 ft | 1 kts | 336° |
| 2026-04-23 16:38 | 57.66022 | 18.33920 | 158 ft | 0 kts | 336° |